Terminal Aerodrome Forecast
Issued by NWS Shreveport, LA

Home | Current Version | Previous Version | Text Only | Print | Product List | Glossary On
Versions: 1 2 3 4 5 6 7 8 9 10 11 12 13 14 15
000
FTUS44 KSHV 190532
TAFELD
TAF
KELD 190532Z 1906/2006 VRB03KT P6SM BKN004 OVC015
      TEMPO 1906/1910 2SM BR
     FM191000 VRB03KT 2SM BR OVC004
      TEMPO 1910/1914 P6SM NSW SCT005 SCT120 BKN250
     FM191400 21007KT P6SM SCT015 SCT140 SCT250
     FM191600 22010KT P6SM SCT030
     FM191900 22012G18KT P6SM SCT040
     FM200000 20010KT P6SM VCTS BKN040CB=

USA.gov is the U.S. government's official web portal to all federal, state and local government web resources and services.